METAR AND TAF INFORMATION
METAR FOR ZSPD
ADDS - METARS form results

(0442 UTC 26 February 2020)
Data provider http://aviationweather.gov/metar/data/
 
METAR text: ZSPD 260430Z 02006MPS 9999 BKN016 OVC033 11/07 Q1026 NOSIG
Conditions at: ZSPD (SHANGHAI/PUDONG , CN) observed 0430 UTC 26 February 2020
Temperature: 11.0°C (52°F)
Dewpoint: 7.0°C (45°F) [RH = 76%]
Pressure (altimeter): 30.30 inches Hg (1026.0 mb)
Winds: from the NNE (20 degrees) at 14 MPH (12 knots; 6.2 m/s)
Visibility: 6 or more miles (10+ km)
Ceiling: 1600 feet AGL
Clouds: broken clouds at 1600 feet AGL
overcast cloud deck at 3300 feet AGL
Weather: no significant weather observed at this time

METAR text: ZSPD 260400Z 01006MPS 9999 BKN016 OVC033 11/07 Q1026 NOSIG
Conditions at: ZSPD (SHANGHAI/PUDONG , CN) observed 0400 UTC 26 February 2020
Temperature: 11.0°C (52°F)
Dewpoint: 7.0°C (45°F) [RH = 76%]
Pressure (altimeter): 30.30 inches Hg (1026.0 mb)
Winds: from the N (10 degrees) at 14 MPH (12 knots; 6.2 m/s)
Visibility: 6 or more miles (10+ km)
Ceiling: 1600 feet AGL
Clouds: broken clouds at 1600 feet AGL
overcast cloud deck at 3300 feet AGL
Weather: no significant weather observed at this time

Forecast for: ZSPD (SHANGHAI/PUDONG , CN)
Text: TAF ZSPD 260304Z 2606/2706 02006G12MPS 6000 BKN015 TX14/2606Z TN06/2621Z
Forecast period: 0600 UTC 26 February 2020 to 0600 UTC 27 February 2020
Forecast type: FROM: standard forecast or significant change
Winds: from the NNE (20 degrees) at 14 MPH (12 knots; 6.2 m/s)
gusting to 26 MPH (23 knots; 11.8 m/s)
Visibility: 4 miles (6 km)
Ceiling: 1500 feet AGL
Clouds: broken clouds at 1500 feet AGL
Weather: no significant weather forecast for this period

 AIRPORT MAP

 RUNWAY INFORMATION
Runway 16 Runway length 12467 ft Runway width 197 ft
Runway elevation 13 ft Runway displaced threshold 0 ft Runway heading 162
Runway 34 Runway length 12467 ft Runway width 197 ft
Runway elevation 13 ft Runway displaced threshold 0 ft Runway heading 342
Runway 17 Runway length 13123 ft Runway width 197 ft
Runway elevation 10 ft Runway displaced threshold 0 ft Runway heading 162
Runway 35 Runway length 13123 ft Runway width 197 ft
Runway elevation 10 ft Runway displaced threshold 0 ft Runway heading 342

 AIRPORT FREQUENCIES
Type APP Name SHANGHAI A Frequency 119.75 MHZ
Type APP Name SHANGHAI A Frequency 120.3 MHZ
Type APP Name SHAINGHAI Frequency 121.3 MHZ
Type APP Name SHANGHAI A Frequency 123.8 MHZ
Type ATIS Name ATIS Frequency 127.85 MHZ
Type CLD Name DEL Frequency 121.95 MHZ
Type GND Name GND WEST Frequency 121.65 MHZ
Type GND Name GND EAST Frequency 121.8 MHZ
Type TWR Name TWR EAST Frequency 118.4 MHZ
Type TWR Name TWR WEST Frequency 118.8 MHZ

 AIRPORT NEAR NAVIGATION AIDS
Type VOR-DME Name Hengsha Frequency 114400 KHZ
Type VOR-DME Name Nanhui Frequency 114600 KHZ
Type VOR-DME Name Liuzao Frequency 109400 KHZ
Type VOR-DME Name Pudong Frequency 116900 KHZ
Type VOR-DME Name Shuyuan Frequency 113600 KHZ



Powered by Virtual Airlines Manager [v2.6.2]